createdAt,value
2023-05-06T07:48:50.630Z,13.62
2023-05-06T07:51:18.052Z,13.81
2023-05-06T07:53:45.243Z,14.00
2023-05-06T07:56:12.222Z,14.06
2023-05-06T07:58:39.265Z,14.12
2023-05-06T08:01:06.568Z,14.20
2023-05-06T08:03:35.570Z,14.41
2023-05-06T08:06:03.901Z,14.61
2023-05-06T08:08:30.863Z,14.61
2023-05-06T08:10:58.732Z,14.73
2023-05-06T08:13:27.246Z,14.73
2023-05-06T08:15:54.974Z,14.46
2023-05-06T08:18:23.220Z,14.57
2023-05-06T08:20:51.479Z,14.72
2023-05-06T08:23:18.507Z,14.88
2023-05-06T08:25:46.808Z,15.07
2023-05-06T08:28:13.910Z,15.19
2023-05-06T08:30:40.925Z,15.35
2023-05-06T08:33:07.980Z,15.40
2023-05-06T08:35:34.961Z,15.37
2023-05-06T08:38:02.214Z,15.56
2023-05-06T08:40:33.012Z,15.76
2023-05-06T08:43:06.088Z,15.96
2023-05-06T08:45:33.248Z,15.93
2023-05-06T08:48:00.429Z,16.02
2023-05-06T08:50:27.553Z,15.82
2023-05-06T08:52:54.720Z,15.98
2023-05-06T08:55:24.518Z,16.02
2023-05-06T08:57:53.570Z,16.14
2023-05-06T09:00:20.532Z,16.28
2023-05-06T09:02:47.527Z,16.39
2023-05-06T09:05:14.471Z,16.52
2023-05-06T09:07:41.681Z,16.47
2023-05-06T09:10:13.814Z,16.52
2023-05-06T09:12:41.311Z,16.69
2023-05-06T09:15:10.100Z,16.93
2023-05-06T09:17:37.303Z,17.04
2023-05-06T09:20:08.446Z,17.01
2023-05-06T09:22:39.423Z,17.15
2023-05-06T09:25:06.954Z,17.20
2023-05-06T09:27:37.049Z,17.40
2023-05-06T09:30:09.601Z,17.41
2023-05-06T09:32:39.297Z,17.45
2023-05-06T09:35:08.613Z,17.58
2023-05-06T09:37:36.447Z,17.69
2023-05-06T09:40:03.508Z,17.61
2023-05-06T09:42:31.217Z,17.47
2023-05-06T09:45:02.211Z,17.62
2023-05-06T09:47:34.869Z,17.82
2023-05-06T09:50:04.024Z,18.09
2023-05-06T09:52:31.730Z,18.26
2023-05-06T09:54:59.633Z,18.34
2023-05-06T09:57:29.288Z,18.32
2023-05-06T09:59:57.854Z,18.29
2023-05-06T10:02:25.682Z,18.27
2023-05-06T10:04:56.223Z,18.30
2023-05-06T10:07:25.926Z,18.30
2023-05-06T10:09:54.510Z,18.36
2023-05-06T10:12:21.963Z,18.32
2023-05-06T10:14:49.061Z,18.27
2023-05-06T10:17:18.938Z,18.19
2023-05-06T10:19:47.227Z,18.11
2023-05-06T10:22:27.359Z,17.98
2023-05-06T10:25:03.812Z,17.89
2023-05-06T10:27:33.364Z,17.83
2023-05-06T10:30:01.177Z,17.71
2023-05-06T10:32:32.696Z,17.56
2023-05-06T10:35:09.378Z,17.48
2023-05-06T10:37:38.813Z,17.38
2023-05-06T10:40:07.139Z,17.34
2023-05-06T10:42:35.784Z,17.30
2023-05-06T10:45:04.687Z,17.35
2023-05-06T10:47:58.029Z,17.39
2023-05-06T10:50:26.986Z,17.49
2023-05-06T10:53:01.827Z,17.70
2023-05-06T10:55:33.972Z,17.87
2023-05-06T10:58:12.970Z,18.01
2023-05-06T11:00:39.931Z,18.15
2023-05-06T11:03:18.942Z,17.86
2023-05-06T11:05:52.194Z,18.09
2023-05-06T11:08:24.299Z,18.24
2023-05-06T11:10:52.128Z,18.41
2023-05-06T11:13:23.135Z,18.34
2023-05-06T11:15:52.231Z,18.43
2023-05-06T11:18:24.963Z,18.70
2023-05-06T11:21:05.226Z,18.93
2023-05-06T11:23:49.614Z,18.91
2023-05-06T11:26:16.831Z,18.88
2023-05-06T11:28:48.117Z,18.74
2023-05-06T11:31:16.149Z,18.80
2023-05-06T11:33:51.414Z,18.89
2023-05-06T11:36:20.032Z,19.07
2023-05-06T11:38:53.082Z,19.22
2023-05-06T11:41:22.295Z,19.45
2023-05-06T11:43:51.146Z,19.58
2023-05-06T11:46:23.319Z,19.70
2023-05-06T11:48:50.789Z,19.87
2023-05-06T11:51:24.914Z,19.85
2023-05-06T11:53:53.222Z,19.72
2023-05-06T11:56:20.173Z,19.67
2023-05-06T11:58:47.390Z,19.72
2023-05-06T12:01:14.425Z,19.80
2023-05-06T12:03:41.444Z,19.98
2023-05-06T12:06:08.494Z,20.29
2023-05-06T12:08:37.724Z,20.33
2023-05-06T12:11:08.785Z,20.37
2023-05-06T12:13:40.861Z,20.46
2023-05-06T12:16:08.683Z,20.36
2023-05-06T12:18:36.426Z,20.57
2023-05-06T12:21:03.615Z,20.52
2023-05-06T12:23:30.723Z,20.31
2023-05-06T12:26:05.994Z,20.09
2023-05-06T12:28:35.650Z,19.81
2023-05-06T12:31:19.207Z,19.65
2023-05-06T12:33:49.269Z,19.45
2023-05-06T12:36:17.326Z,19.41
2023-05-06T12:38:52.905Z,19.54
2023-05-06T12:41:20.872Z,19.63
2023-05-06T12:43:48.205Z,19.31
2023-05-06T12:46:16.625Z,19.03
2023-05-06T12:49:03.077Z,18.93
2023-05-06T12:51:31.202Z,18.85
2023-05-06T12:53:59.394Z,18.83
2023-05-06T12:56:26.391Z,18.83
2023-05-06T12:59:03.312Z,18.75
2023-05-06T13:01:31.712Z,18.68
2023-05-06T13:03:59.028Z,18.73
2023-05-06T13:06:26.204Z,18.63
2023-05-06T13:08:53.236Z,18.58
2023-05-06T13:11:22.406Z,18.49
2023-05-06T13:13:49.420Z,18.48
2023-05-06T13:16:16.671Z,18.61
2023-05-06T13:18:43.730Z,18.77
2023-05-06T13:21:10.844Z,18.96
2023-05-06T13:23:40.304Z,18.95
2023-05-06T13:26:08.838Z,19.08
2023-05-06T13:28:36.914Z,19.15
2023-05-06T13:31:04.253Z,18.95
2023-05-06T13:33:31.555Z,18.71
2023-05-06T13:35:58.653Z,18.60
2023-05-06T13:38:25.588Z,18.55
2023-05-06T13:40:54.138Z,18.50
2023-05-06T13:43:22.537Z,18.44
2023-05-06T13:45:49.503Z,18.46
2023-05-06T13:48:17.592Z,18.47
2023-05-06T13:50:46.173Z,18.49
2023-05-06T13:53:14.528Z,18.51
2023-05-06T13:55:42.955Z,18.54
2023-05-06T13:58:10.216Z,18.53
2023-05-06T14:00:37.117Z,18.48
2023-05-06T14:03:04.491Z,18.41
2023-05-06T14:05:32.464Z,18.42
2023-05-06T14:07:59.379Z,18.46
2023-05-06T14:10:26.397Z,18.59
2023-05-06T14:12:53.334Z,18.69
2023-05-06T14:15:20.451Z,18.77
2023-05-06T14:17:47.400Z,19.01
2023-05-06T14:20:14.412Z,19.12
2023-05-06T14:22:41.789Z,19.26
2023-05-06T14:25:12.019Z,19.44
2023-05-06T14:27:39.387Z,19.73
2023-05-06T14:30:09.402Z,19.77
2023-05-06T14:32:36.778Z,19.77
2023-05-06T14:35:04.909Z,19.64
2023-05-06T14:37:31.972Z,19.48
2023-05-06T14:40:00.202Z,19.31
2023-05-06T14:42:27.203Z,19.24
2023-05-06T14:44:55.186Z,19.11
2023-05-06T14:47:22.387Z,19.10
2023-05-06T14:49:49.476Z,19.09
2023-05-06T14:52:16.432Z,19.03
2023-05-06T14:54:43.431Z,19.17
2023-05-06T14:57:11.035Z,19.32
2023-05-06T14:59:38.682Z,19.35
2023-05-06T15:02:09.407Z,19.26
2023-05-06T15:04:36.954Z,19.04
2023-05-06T15:07:04.563Z,18.92
2023-05-06T15:09:31.622Z,18.82
2023-05-06T15:11:58.719Z,18.79
2023-05-06T15:14:26.050Z,18.73
2023-05-06T15:16:56.634Z,18.66
2023-05-06T15:19:24.301Z,18.48
2023-05-06T15:21:51.598Z,18.33
2023-05-06T15:24:18.543Z,18.15
2023-05-06T15:26:45.534Z,18.04
2023-05-06T15:29:13.017Z,17.99
2023-05-06T15:31:41.218Z,17.98
2023-05-06T15:34:10.773Z,18.03
2023-05-06T15:36:38.588Z,17.97
2023-05-06T15:39:05.666Z,17.96
2023-05-06T15:41:33.882Z,17.94
2023-05-06T15:44:02.652Z,17.96
2023-05-06T15:46:31.011Z,17.89
2023-05-06T15:49:22.378Z,17.82
2023-05-06T15:51:45.235Z,17.72
2023-05-06T15:54:13.687Z,17.66
2023-05-06T15:56:41.621Z,17.58
2023-05-06T15:59:09.069Z,17.55
2023-05-06T16:02:18.921Z,17.81
2023-05-06T16:04:24.352Z,18.12
2023-05-06T16:06:51.584Z,18.55
2023-05-06T16:09:18.568Z,18.89
2023-05-06T16:11:45.493Z,19.21
2023-05-06T16:14:13.220Z,19.45
2023-05-06T16:16:40.245Z,19.42
2023-05-06T16:19:07.607Z,19.63
2023-05-06T16:21:34.782Z,19.90
2023-05-06T16:24:02.624Z,19.94
2023-05-06T16:26:29.825Z,19.99
2023-05-06T16:28:56.734Z,19.87
2023-05-06T16:31:23.768Z,19.61
2023-05-06T16:33:51.218Z,19.50
2023-05-06T16:36:18.155Z,19.51
2023-05-06T16:38:45.103Z,19.13
2023-05-06T16:41:12.047Z,19.10
2023-05-06T16:43:39.029Z,18.97
2023-05-06T16:46:06.544Z,18.93
2023-05-06T16:48:33.674Z,18.78
2023-05-06T16:51:00.799Z,18.58
2023-05-06T16:53:28.180Z,18.36
2023-05-06T16:55:55.736Z,18.04
2023-05-06T16:58:22.756Z,17.89
2023-05-06T17:00:52.785Z,17.83
2023-05-06T17:03:19.937Z,17.69
2023-05-06T17:10:29.380Z,17.21
